Terminal Aerodrome Forecast
Issued by NWS

Home | Current Version | Previous Version | Text Only | Print | Product List | Glossary On
Versions: 1 2 3 4 5 6 7 8 9 10 11 12 13 14 15 16 17 18 19 20 21 22
196
FTUS44 KLZK 282320
TAFBPK
TAF
KBPK 282320Z 2900/2924 24005KT P6SM VCTS SCT040CB BKN150
     FM290400 VRB03KT P6SM FEW040 SCT200
      TEMPO 2906/2910 5SM BR
     FM291000 VRB04KT P6SM VCSH SCT040 BKN100
      TEMPO 2910/2913 1SM BR
     FM291600 VRB06KT P6SM VCTS SCT040CB=

USA.gov is the U.S. government's official web portal to all federal, state and local government web resources and services.